Time;durP1;ratioP1;P1;durP2;ratioP2;P2;SDS_P1;SDS_P2;PMS_P1;PMS_P2;Temp;Humidity;BMP_temperature;BMP_pressure;BME280_temperature;BME280_humidity;BME280_pressure;Samples;Min_cycle;Max_cycle;Signal;HPM_P1;HPM_P2
2022/05/20 00:00:10;;;;;;;0.40;0.40;;;14.60;99.90;14.80;101982.00;;;;5156415;27;20192;-66
2022/05/20 00:02:39;;;;;;;0.40;0.40;;;14.60;99.90;15.00;101983.00;;;;5138136;27;20536;-66
2022/05/20 00:05:05;;;;;;;0.40;0.40;;;14.60;99.90;15.00;102003.00;;;;5156473;27;20188;-66
2022/05/20 00:07:31;;;;;;;0.43;0.43;;;14.80;99.90;15.10;101995.00;;;;5156293;27;20556;-66
2022/05/20 00:09:57;;;;;;;0.50;0.50;;;14.80;99.90;15.00;101993.00;;;;5137862;27;20195;-66
2022/05/20 00:12:23;;;;;;;0.43;0.43;;;14.70;99.90;14.80;102016.00;;;;5137380;27;20212;-67
2022/05/20 00:14:51;;;;;;;0.40;0.40;;;14.60;99.90;15.10;101998.00;;;;5137844;27;20649;-66
2022/05/20 00:17:17;;;;;;;1.10;1.10;;;14.70;99.90;15.10;101968.00;;;;5156403;27;20539;-67
2022/05/20 00:19:44;;;;;;;0.40;0.40;;;14.70;99.90;14.80;101998.00;;;;5156441;27;20181;-67
2022/05/20 00:22:11;;;;;;;1.90;1.80;;;14.60;99.90;14.40;102003.00;;;;5155925;27;20313;-67
2022/05/20 00:25:45;;;;;;;0.40;0.40;;;14.50;99.90;14.10;102004.00;;;;5155996;27;20189;-67
2022/05/20 00:27:23;;;;;;;0.40;0.40;;;14.30;99.90;14.30;101977.00;;;;5155745;27;20196;-67
2022/05/20 00:29:49;;;;;;;0.53;0.53;;;14.20;99.90;14.70;101987.00;;;;5156397;27;20224;-67
2022/05/20 00:32:17;;;;;;;0.40;0.40;;;14.40;99.90;14.30;101996.00;;;;5137265;27;20254;-66
2022/05/20 00:34:43;;;;;;;0.50;0.50;;;14.30;99.90;14.30;101988.00;;;;5156079;27;20188;-67
2022/05/20 00:37:09;;;;;;;0.40;0.40;;;14.20;99.90;15.00;101985.00;;;;5137133;27;20521;-67
2022/05/20 00:39:35;;;;;;;1.43;1.43;;;14.50;99.90;14.90;101989.00;;;;5155846;27;20253;-67
2022/05/20 00:42:14;;;;;;;2.67;2.47;;;14.50;99.90;14.60;101984.00;;;;5155649;27;20542;-67
2022/05/20 00:44:41;;;;;;;1.77;1.67;;;14.40;99.90;14.80;101987.00;;;;5137709;27;20184;-67
2022/05/20 00:47:07;;;;;;;0.43;0.43;;;14.50;99.90;14.70;101969.00;;;;5137257;27;20216;-67
2022/05/20 00:49:36;;;;;;;2.30;2.13;;;14.50;99.90;14.70;101968.00;;;;5137610;27;20198;-67
2022/05/20 00:52:05;;;;;;;2.07;1.93;;;14.60;99.90;14.50;101969.00;;;;5136528;27;20218;-67
2022/05/20 00:54:43;;;;;;;0.97;0.97;;;14.40;99.90;14.80;101975.00;;;;5136394;27;20202;-67
2022/05/20 00:57:13;;;;;;;0.60;0.60;;;14.40;99.90;14.70;101964.00;;;;5155540;27;20199;-67
2022/05/20 00:59:48;;;;;;;0.40;0.40;;;14.40;99.90;14.70;101930.00;;;;5137276;27;20189;-67
2022/05/20 01:02:21;;;;;;;0.30;0.30;;;14.50;99.90;14.40;101962.00;;;;5136956;27;20676;-67
2022/05/20 01:04:48;;;;;;;4.03;3.10;;;14.40;99.90;14.50;101963.00;;;;5120583;27;20650;-66
2022/05/20 01:07:18;;;;;;;1.27;1.27;;;14.40;99.90;14.60;101964.00;;;;5136634;27;20196;-66
2022/05/20 01:09:44;;;;;;;1.30;1.30;;;14.40;99.90;14.70;101961.00;;;;5137206;27;20237;-66
2022/05/20 01:12:10;;;;;;;2.20;2.10;;;14.50;99.90;14.60;101970.00;;;;5136587;27;20303;-66
2022/05/20 01:14:37;;;;;;;3.30;3.00;;;14.40;99.90;14.50;101955.00;;;;5136937;27;20185;-66
2022/05/20 01:17:04;;;;;;;0.30;0.30;;;14.40;99.90;14.70;101929.00;;;;5155355;27;20191;-66
2022/05/20 01:19:40;;;;;;;1.17;1.17;;;14.40;99.90;14.80;101927.00;;;;5136856;27;20196;-66
2022/05/20 01:22:08;;;;;;;0.40;0.40;;;14.50;99.90;14.50;101948.00;;;;5154786;27;20183;-66
2022/05/20 01:24:36;;;;;;;1.33;1.23;;;14.50;99.90;14.50;101951.00;;;;5136867;27;20186;-66
2022/05/20 01:27:03;;;;;;;1.63;1.33;;;14.40;99.90;14.90;101961.00;;;;5155041;27;20618;-66
2022/05/20 01:29:33;;;;;;;0.30;0.30;;;14.60;99.90;14.70;101950.00;;;;5155063;27;20183;-66
2022/05/20 01:31:58;;;;;;;2.07;1.97;;;14.60;99.90;14.90;101944.00;;;;5136466;27;20220;-66
2022/05/20 01:34:24;;;;;;;0.40;0.40;;;14.70;99.90;14.80;101942.00;;;;5155000;27;20189;-66
2022/05/20 01:36:50;;;;;;;1.00;1.00;;;14.60;99.90;14.70;101944.00;;;;5154704;27;20291;-66
2022/05/20 01:39:17;;;;;;;1.10;0.97;;;14.60;99.90;14.50;101934.00;;;;5154789;27;20273;-66
2022/05/20 01:42:01;;;;;;;1.03;1.03;;;14.40;99.90;14.70;101940.00;;;;5154763;27;20185;-66
2022/05/20 01:44:54;;;;;;;0.80;0.80;;;14.40;99.90;14.90;101949.00;;;;5136540;27;20185;-66
2022/05/20 01:47:41;;;;;;;0.80;0.80;;;14.60;99.90;14.80;101949.00;;;;5136342;27;20272;-66
2022/05/20 01:50:23;;;;;;;0.93;0.93;;;14.70;99.90;14.80;101927.00;;;;5136049;27;20185;-66
2022/05/20 01:53:00;;;;;;;0.50;0.50;;;14.60;99.90;14.60;101916.00;;;;5136045;27;20616;-66
2022/05/20 01:56:08;;;;;;;0.77;0.77;;;14.50;99.90;14.70;101948.00;;;;5154693;27;20267;-66
2022/05/20 01:59:16;;;;;;;2.10;1.03;;;14.40;99.90;14.80;101941.00;;;;5136133;27;20196;-66
2022/05/20 02:01:54;;;;;;;1.80;1.70;;;14.50;99.90;14.70;101914.00;;;;5136457;27;20666;-66
2022/05/20 02:04:27;;;;;;;1.80;1.37;;;14.50;99.90;14.70;101955.00;;;;5135821;27;20544;-66
2022/05/20 02:07:02;;;;;;;1.40;1.13;;;14.50;99.90;14.40;101945.00;;;;5135684;27;20185;-66
2022/05/20 02:10:16;;;;;;;0.80;0.80;;;14.40;99.90;14.60;101955.00;;;;5154874;27;20206;-66
2022/05/20 02:12:50;;;;;;;0.80;0.80;;;14.40;99.90;14.50;101950.00;;;;5135856;27;20232;-66
2022/05/20 02:15:46;;;;;;;0.37;0.37;;;14.40;99.90;14.70;101947.00;;;;5135936;27;20295;-66
2022/05/20 02:18:29;;;;;;;0.40;0.40;;;14.30;99.90;14.70;101898.00;;;;5118792;27;20204;-67
2022/05/20 02:21:05;;;;;;;1.90;1.80;;;14.50;99.90;14.40;101902.00;;;;5154205;27;20189;-66
2022/05/20 02:23:37;;;;;;;0.83;0.83;;;14.50;99.90;14.20;101927.00;;;;5135771;27;20180;-66
2022/05/20 02:26:12;;;;;;;4.47;4.10;;;14.30;99.90;14.20;101920.00;;;;5135976;27;20185;-65
2022/05/20 02:28:42;;;;;;;4.40;4.00;;;14.30;99.90;14.00;101879.00;;;;5135809;27;20180;-65
2022/05/20 02:31:18;;;;;;;2.03;1.90;;;14.30;99.90;14.20;101909.00;;;;5135640;27;20212;-65
2022/05/20 02:33:44;;;;;;;0.73;0.73;;;14.30;99.90;14.70;101917.00;;;;5135382;27;20187;-65
2022/05/20 02:36:36;;;;;;;1.33;1.33;;;14.40;99.90;14.80;101913.00;;;;5154055;27;20190;-67
2022/05/20 02:39:06;;;;;;;2.20;2.00;;;14.60;99.90;14.60;101932.00;;;;5136900;27;20272;-67
2022/05/20 02:41:33;;;;;;;3.40;3.20;;;14.60;99.90;14.70;101940.00;;;;5135813;27;20723;-66
2022/05/20 02:43:59;;;;;;;1.67;1.57;;;14.60;99.90;14.40;101937.00;;;;5153800;27;20206;-65
2022/05/20 02:46:25;;;;;;;3.13;2.93;;;14.50;99.90;14.70;101911.00;;;;5135785;27;20244;-66
2022/05/20 02:48:51;;;;;;;1.27;1.13;;;14.60;99.90;14.60;101948.00;;;;5135253;27;20216;-66
2022/05/20 02:51:17;;;;;;;4.00;3.70;;;14.60;99.90;14.50;101944.00;;;;5135368;27;20201;-66
2022/05/20 02:53:45;;;;;;;6.23;2.83;;;14.50;99.90;14.50;101944.00;;;;5153668;27;20652;-66
2022/05/20 02:56:10;;;;;;;2.37;2.27;;;14.50;99.90;14.40;101932.00;;;;5153909;27;20274;-66
2022/05/20 03:04:10;;;;;;;1.03;1.03;;;14.60;99.90;14.40;101921.00;;;;5153771;27;20246;-66
2022/05/20 03:06:37;;;;;;;2.53;1.60;;;14.50;99.90;14.40;101887.00;;;;5136176;27;20204;-66
2022/05/20 03:09:05;;;;;;;0.83;0.83;;;14.50;99.90;14.50;101905.00;;;;5153569;27;20611;-67
2022/05/20 03:11:34;;;;;;;1.83;1.77;;;14.50;99.90;14.40;101908.00;;;;5118081;27;20200;-66
2022/05/20 03:14:04;;;;;;;2.43;1.87;;;14.50;99.90;14.60;101909.00;;;;5135158;27;20235;-66
2022/05/20 03:16:31;;;;;;;1.53;1.53;;;14.50;99.90;14.40;101904.00;;;;5153322;27;20638;-66
2022/05/20 03:18:58;;;;;;;1.20;1.20;;;14.50;99.90;14.60;101896.00;;;;5155620;27;20199;-66
2022/05/20 03:21:25;;;;;;;0.60;0.60;;;14.50;99.90;14.30;101885.00;;;;5138456;27;20181;-66
2022/05/20 03:23:52;;;;;;;1.47;1.37;;;14.40;99.90;14.60;101889.00;;;;5157085;27;20547;-66
2022/05/20 03:26:19;;;;;;;0.70;0.70;;;14.50;99.90;14.30;101899.00;;;;5138548;27;20534;-66
2022/05/20 03:28:45;;;;;;;0.40;0.40;;;14.40;99.90;14.30;101864.00;;;;5138704;27;20273;-66
2022/05/20 03:31:12;;;;;;;6.47;6.17;;;14.40;99.90;14.60;101896.00;;;;5156619;27;20213;-66
2022/05/20 03:33:41;;;;;;;1.40;1.40;;;14.50;99.90;14.50;101874.00;;;;5138819;27;20272;-66
2022/05/20 03:36:07;;;;;;;0.40;0.40;;;14.40;99.90;14.50;101889.00;;;;5138348;27;20192;-66
2022/05/20 03:38:35;;;;;;;0.50;0.50;;;14.40;99.90;14.30;101888.00;;;;5156751;27;20265;-66
2022/05/20 03:41:01;;;;;;;0.50;0.50;;;14.40;99.90;14.40;101891.00;;;;5138338;27;20199;-66
2022/05/20 03:43:27;;;;;;;0.60;0.60;;;14.40;99.90;13.70;101879.00;;;;5138270;27;20560;-66
2022/05/20 03:45:54;;;;;;;0.43;0.43;;;14.20;99.90;14.40;101871.00;;;;5138027;27;20193;-66
2022/05/20 03:48:21;;;;;;;1.40;1.40;;;14.30;99.90;14.40;101884.00;;;;5138126;27;20193;-66
2022/05/20 03:50:47;;;;;;;0.40;0.40;;;14.50;99.90;14.10;101835.00;;;;5156700;27;20189;-66
2022/05/20 03:53:13;;;;;;;9.97;4.43;;;14.40;99.90;14.20;101874.00;;;;5138111;27;20220;-66
2022/05/20 03:55:39;;;;;;;0.50;0.50;;;14.30;99.90;14.30;101887.00;;;;5156720;27;20658;-66
2022/05/20 03:58:05;;;;;;;2.67;2.27;;;14.30;99.90;14.70;101831.00;;;;5156824;27;20280;-66
2022/05/20 04:00:31;;;;;;;0.50;0.50;;;14.50;99.90;15.10;101899.00;;;;5156250;27;20641;-67
2022/05/20 04:02:57;;;;;;;0.40;0.40;;;14.80;99.90;14.80;101897.00;;;;5156550;27;20233;-67
2022/05/20 04:05:23;;;;;;;0.47;0.47;;;14.90;99.90;15.10;101889.00;;;;5156250;27;20192;-66
2022/05/20 04:07:49;;;;;;;0.50;0.50;;;14.90;99.90;15.20;101872.00;;;;5156477;27;20190;-66
2022/05/20 04:10:15;;;;;;;0.70;0.70;;;15.00;99.90;15.20;101817.00;;;;5156184;27;20185;-67
2022/05/20 04:12:42;;;;;;;1.10;1.10;;;15.10;99.90;15.20;101843.00;;;;5156178;27;20218;-67
2022/05/20 04:15:13;;;;;;;1.00;1.00;;;15.20;99.90;14.60;101841.00;;;;5137556;27;20199;-67
2022/05/20 04:17:42;;;;;;;4.47;4.20;;;14.90;99.90;14.50;101817.00;;;;5137697;27;20244;-67
2022/05/20 04:20:10;;;;;;;2.87;2.63;;;14.80;99.90;14.60;101847.00;;;;5156417;27;20508;-68
2022/05/20 04:22:39;;;;;;;1.80;1.80;;;14.70;99.90;14.60;101859.00;;;;5156183;27;20699;-68
2022/05/20 04:25:06;;;;;;;0.60;0.60;;;14.70;99.90;14.40;101834.00;;;;5137980;27;20192;-68
2022/05/20 04:27:32;;;;;;;0.40;0.40;;;14.60;99.90;15.00;101864.00;;;;5137623;27;20191;-67
2022/05/20 04:29:59;;;;;;;0.60;0.60;;;14.70;99.90;15.40;101870.00;;;;5137259;27;20642;-67
2022/05/20 04:32:25;;;;;;;0.57;0.57;;;15.10;99.90;14.90;101846.00;;;;5155815;27;20303;-67
2022/05/20 04:34:51;;;;;;;1.90;1.57;;;15.00;99.90;14.70;101864.00;;;;5156092;27;20194;-68
2022/05/20 04:37:17;;;;;;;0.90;0.90;;;14.90;99.90;14.90;101869.00;;;;5137401;27;20204;-67
2022/05/20 04:39:43;;;;;;;2.20;2.10;;;14.80;99.90;15.20;101869.00;;;;5155917;27;20567;-67
2022/05/20 04:47:44;;;;;;;1.20;1.17;;;15.10;99.90;15.30;101852.00;;;;5155800;27;20203;-67
2022/05/20 04:50:11;;;;;;;4.67;4.23;;;15.20;99.90;15.10;101842.00;;;;5137177;27;20197;-67
2022/05/20 04:52:36;;;;;;;2.80;1.70;;;15.10;99.90;15.50;101850.00;;;;5155606;27;20200;-67
2022/05/20 04:55:03;;;;;;;0.60;0.60;;;15.40;99.90;15.30;101851.00;;;;5155708;27;20286;-67
2022/05/20 04:57:37;;;;;;;2.23;2.13;;;15.40;99.90;15.20;101807.00;;;;5136951;27;20198;-67
2022/05/20 05:00:15;;;;;;;0.50;0.50;;;15.30;99.90;15.40;101835.00;;;;5155388;27;20187;-67
2022/05/20 05:02:41;;;;;;;1.27;1.27;;;15.30;99.90;15.50;101837.00;;;;5155238;27;20263;-67
2022/05/20 05:05:12;;;;;;;0.70;0.70;;;15.40;99.90;15.30;101798.00;;;;5155540;27;20183;-67
2022/05/20 05:07:41;;;;;;;5.90;1.53;;;15.40;99.90;15.30;101785.00;;;;5136912;27;20179;-67
2022/05/20 05:10:08;;;;;;;0.50;0.50;;;15.50;99.90;15.60;101827.00;;;;5137003;27;20220;-67
2022/05/20 05:12:34;;;;;;;0.50;0.50;;;15.60;99.90;15.90;101796.00;;;;5154634;27;20270;-67
2022/05/20 05:15:00;;;;;;;2.03;1.93;;;15.80;99.90;16.10;101823.00;;;;5119896;27;20185;-67
2022/05/20 05:20:23;;;;;;;2.90;2.57;;;16.70;99.90;17.90;101822.00;;;;5155503;27;20212;-67
2022/05/20 05:22:53;;;;;;;2.00;1.90;;;17.60;99.90;16.80;101801.00;;;;5155003;27;20190;-67
2022/05/20 05:25:22;;;;;;;4.33;3.93;;;17.20;99.90;17.60;101826.00;;;;5136736;27;20190;-67
2022/05/20 05:27:48;;;;;;;2.35;2.25;;;17.70;99.90;18.90;101812.00;;;;5136534;27;20196;-67
2022/05/20 05:30:20;;;;;;;3.70;3.53;;;18.40;99.90;18.10;101816.00;;;;5155109;27;20194;-67
2022/05/20 05:32:46;;;;;;;0.73;0.73;;;18.40;99.90;19.00;101813.00;;;;5136473;27;20210;-67
2022/05/20 05:35:18;;;;;;;5.13;3.75;;;18.80;99.90;19.50;101791.00;;;;5154958;27;20351;-67
2022/05/20 05:37:44;;;;;;;3.10;1.75;;;19.40;99.90;20.40;101803.00;;;;5119106;27;20566;-66
2022/05/20 05:40:17;;;;;;;0.70;0.70;;;20.00;99.90;21.50;101793.00;;;;5136425;27;20185;-66
2022/05/20 05:42:43;;;;;;;1.15;1.15;;;20.80;99.90;20.60;101780.00;;;;5135614;27;20190;-66
2022/05/20 05:45:12;;;;;;;2.20;2.10;;;20.70;99.90;20.40;101757.00;;;;5136456;27;20186;-65
2022/05/20 05:47:38;;;;;;;0.82;0.82;;;20.60;99.90;21.40;101789.00;;;;5154936;27;20233;-66
2022/05/20 05:50:05;;;;;;;3.33;2.67;;;20.90;99.90;19.70;101747.00;;;;5136557;27;20175;-66
2022/05/20 05:52:31;;;;;;;2.67;2.58;;;20.70;99.90;17.60;101789.00;;;;5136048;27;20262;-65
2022/05/20 05:54:56;;;;;;;0.28;0.28;;;19.30;99.90;18.90;101811.00;;;;5136488;27;20209;-65
2022/05/20 05:57:22;;;;;;;1.20;1.15;;;19.20;99.90;20.40;101805.00;;;;5154447;27;20197;-65
2022/05/20 05:59:48;;;;;;;4.53;4.32;;;19.90;99.90;18.80;101785.00;;;;5154608;27;20218;-65
2022/05/20 06:02:14;;;;;;;0.75;0.75;;;20.10;99.90;19.00;101802.00;;;;5154422;27;20636;-65
2022/05/20 06:04:39;;;;;;;1.48;0.98;;;19.50;99.90;21.10;101800.00;;;;5154851;27;20238;-65
2022/05/20 06:07:05;;;;;;;2.33;2.22;;;20.50;99.90;21.80;101769.00;;;;5154985;27;20538;-66
2022/05/20 06:09:33;;;;;;;2.28;1.17;;;21.40;99.90;21.00;101786.00;;;;5154397;27;20644;-65
2022/05/20 06:12:01;;;;;;;2.95;2.85;;;21.40;99.90;22.30;101799.00;;;;5154006;27;20221;-65
2022/05/20 06:14:27;;;;;;;4.47;3.25;;;21.80;99.90;20.40;101747.00;;;;5154459;27;20193;-66
2022/05/20 06:16:53;;;;;;;1.98;1.30;;;21.50;99.90;21.70;101782.00;;;;5154360;27;20266;-66
2022/05/20 06:19:19;;;;;;;0.47;0.47;;;21.70;99.90;20.40;101769.00;;;;5154511;27;20327;-66
2022/05/20 06:21:45;;;;;;;0.68;0.68;;;21.40;99.90;20.90;101756.00;;;;5154542;27;20178;-66
2022/05/20 06:24:11;;;;;;;0.95;0.95;;;21.20;99.90;22.70;101779.00;;;;5154105;27;20175;-66
2022/05/20 06:26:37;;;;;;;1.25;0.95;;;22.10;99.90;20.60;101774.00;;;;5154058;27;20292;-65
2022/05/20 06:29:05;;;;;;;6.28;3.83;;;21.80;99.90;20.00;101771.00;;;;5135821;27;20263;-65
2022/05/20 06:31:32;;;;;;;1.88;1.77;;;21.00;99.90;20.00;101772.00;;;;5153916;27;20203;-66
2022/05/20 06:33:58;;;;;;;0.60;0.60;;;20.70;99.90;19.80;101762.00;;;;5135792;27;20195;-66
2022/05/20 06:41:56;;;;;;;0.30;0.30;;;19.10;99.90;18.90;101761.00;;;;5154148;27;20286;-66
2022/05/20 06:44:24;;;;;;;1.10;1.10;;;19.10;99.90;19.50;101797.00;;;;5135477;27;20239;-66
2022/05/20 06:46:50;;;;;;;2.38;2.20;;;19.20;99.90;19.60;101787.00;;;;5136147;27;20196;-66
2022/05/20 06:49:17;;;;;;;3.15;2.85;;;19.40;99.90;17.90;101771.00;;;;5135442;27;20243;-66
2022/05/20 06:51:42;;;;;;;5.65;2.95;;;19.00;99.90;19.00;101775.00;;;;5153875;27;20297;-66
2022/05/20 06:54:11;;;;;;;2.95;2.75;;;19.00;99.90;18.60;101766.00;;;;5155861;27;20277;-66
2022/05/20 06:56:39;;;;;;;1.25;1.25;;;19.00;99.90;18.70;101763.00;;;;5139052;27;20546;-66
2022/05/20 06:59:08;;;;;;;2.53;2.00;;;18.90;99.90;19.70;101761.00;;;;5139259;27;20701;-66
2022/05/20 07:01:34;;;;;;;0.95;0.95;;;19.50;99.90;20.10;101758.00;;;;5121331;27;20195;-67
2022/05/20 07:04:00;;;;;;;2.33;1.88;;;19.80;99.90;19.40;101734.00;;;;5138825;27;20273;-67
2022/05/20 07:06:30;;;;;;;8.73;4.93;;;19.80;99.90;18.70;101728.00;;;;5139172;27;20215;-67
2022/05/20 07:08:56;;;;;;;8.00;7.32;;;19.20;99.90;18.70;101759.00;;;;5157415;27;20212;-67
2022/05/20 07:11:24;;;;;;;2.33;1.88;;;19.00;99.90;18.70;101743.00;;;;5138819;27;20205;-67
2022/05/20 07:13:56;;;;;;;0.93;0.93;;;19.00;99.90;18.40;101740.00;;;;5157516;27;20250;-67
2022/05/20 07:16:25;;;;;;;2.35;2.22;;;18.90;99.90;18.80;101762.00;;;;5139331;27;20205;-67
2022/05/20 07:18:51;;;;;;;6.18;3.95;;;18.90;99.90;18.50;101761.00;;;;5138902;27;20239;-67
2022/05/20 07:21:16;;;;;;;0.68;0.68;;;19.00;99.90;19.00;101755.00;;;;5121457;27;20192;-67
2022/05/20 07:23:42;;;;;;;9.32;6.88;;;19.00;99.90;17.80;101746.00;;;;5156826;27;20198;-67
2022/05/20 07:26:13;;;;;;;7.40;4.68;;;18.80;99.90;18.20;101743.00;;;;5157017;27;20528;-67
2022/05/20 07:28:39;;;;;;;1.40;1.30;;;18.60;99.90;18.70;101713.00;;;;5157083;27;20554;-67
2022/05/20 07:31:06;;;;;;;0.40;0.40;;;18.80;99.90;19.30;101737.00;;;;5138347;27;20656;-67
2022/05/20 07:33:33;;;;;;;3.85;1.30;;;19.20;99.90;19.10;101727.00;;;;5156987;27;20279;-67
2022/05/20 07:35:59;;;;;;;3.05;2.63;;;19.20;99.90;19.60;101716.00;;;;5156904;27;20187;-67
2022/05/20 07:38:26;;;;;;;1.67;1.35;;;19.50;99.90;19.30;101717.00;;;;5138935;27;20193;-67
2022/05/20 07:40:55;;;;;;;0.88;0.88;;;19.50;99.90;18.80;101709.00;;;;5156912;27;20544;-67
2022/05/20 07:43:22;;;;;;;1.42;1.42;;;19.30;99.90;18.90;101712.00;;;;5138968;27;20262;-67
2022/05/20 07:45:51;;;;;;;1.85;1.70;;;19.30;99.90;19.60;101702.00;;;;5121308;27;20204;-67
2022/05/20 07:48:18;;;;;;;1.45;1.38;;;19.40;99.90;19.70;101715.00;;;;5138373;27;20537;-67
2022/05/20 07:50:50;;;;;;;1.20;1.20;;;19.60;99.90;19.80;101698.00;;;;5138169;27;20190;-66
2022/05/20 07:53:23;;;;;;;3.42;3.13;;;19.70;99.90;19.00;101658.00;;;;5156314;27;20607;-68
2022/05/20 07:56:01;;;;;;;0.73;0.70;;;19.60;99.90;18.50;101682.00;;;;5138710;27;20611;-68
2022/05/20 07:58:32;;;;;;;0.68;0.55;;;19.10;99.90;19.30;101685.00;;;;5156529;27;20182;-68
2022/05/20 08:00:59;;;;;;;3.70;3.38;;;19.50;99.90;19.50;101675.00;;;;5156493;27;20644;-67
2022/05/20 08:06:18;;;;;;;0.20;0.20;;;19.90;99.90;19.60;101667.00;;;;5140987;27;20545;-67
2022/05/20 08:08:45;;;;;;;1.65;1.55;;;20.00;99.90;19.60;101646.00;;;;5137692;27;20187;-67
2022/05/20 08:11:11;;;;;;;4.82;4.25;;;20.20;99.90;20.90;101641.00;;;;5156381;27;20186;-67
2022/05/20 08:13:36;;;;;;;4.03;3.67;;;20.80;99.90;21.20;101647.00;;;;5156129;27;20530;-65
2022/05/20 08:16:03;;;;;;;2.65;2.15;;;21.20;99.90;21.20;101627.00;;;;5137751;27;20201;-64
2022/05/20 08:18:29;;;;;;;1.05;1.05;;;21.20;99.90;20.80;101602.00;;;;5156395;27;20185;-65
2022/05/20 08:20:55;;;;;;;9.18;3.80;;;21.20;99.90;20.50;101574.00;;;;5137780;27;20178;-65
2022/05/20 08:23:21;;;;;;;3.00;2.78;;;21.00;99.90;20.40;101582.00;;;;5137653;27;20645;-66
2022/05/20 08:25:49;;;;;;;4.50;2.53;;;20.90;99.90;21.30;101588.00;;;;5137649;27;20287;-66
2022/05/20 08:28:14;;;;;;;2.55;2.35;;;21.20;99.90;22.30;101597.00;;;;5138131;27;20217;-66
2022/05/20 08:30:40;;;;;;;4.20;3.92;;;21.90;99.90;23.20;101641.00;;;;5155953;27;20211;-67
2022/05/20 08:33:06;;;;;;;2.53;2.35;;;23.00;99.90;22.00;101604.00;;;;5156005;27;20206;-67
2022/05/20 08:35:33;;;;;;;0.35;0.35;;;22.60;99.90;21.20;101614.00;;;;5156095;27;20187;-66
2022/05/20 08:38:06;;;;;;;1.95;1.85;;;22.00;99.90;21.40;101589.00;;;;5155951;27;20633;-66
2022/05/20 08:40:44;;;;;;;0.85;0.85;;;21.60;99.90;21.90;101597.00;;;;5155864;27;20185;-67
2022/05/20 08:43:14;;;;;;;8.55;5.55;;;21.70;99.90;20.90;101567.00;;;;5137245;27;20188;-67
2022/05/20 08:45:40;;;;;;;0.95;0.47;;;21.50;99.90;21.60;101581.00;;;;5120274;27;20276;-67
2022/05/20 08:48:12;;;;;;;2.75;1.52;;;21.60;99.90;21.40;101575.00;;;;5120035;27;20191;-66
2022/05/20 08:50:47;;;;;;;1.08;1.05;;;21.60;99.90;22.20;101585.00;;;;5137525;27;20239;-66
2022/05/20 08:53:24;;;;;;;3.10;1.45;;;21.90;99.90;22.40;101572.00;;;;5136924;27;20273;-65
2022/05/20 08:55:52;;;;;;;4.88;2.28;;;22.40;99.90;22.30;101602.00;;;;5137036;27;20707;-65
2022/05/20 08:58:30;;;;;;;6.38;4.50;;;22.30;99.90;21.30;101578.00;;;;5137129;27;20198;-66
2022/05/20 09:00:56;;;;;;;3.20;2.88;;;22.00;99.90;22.00;101558.00;;;;5155413;27;20546;-65
2022/05/20 09:03:22;;;;;;;1.95;1.55;;;22.00;99.90;22.20;101573.00;;;;5137024;27;20192;-65
2022/05/20 09:05:48;;;;;;;0.20;0.20;;;22.30;99.90;22.80;101564.00;;;;5154881;27;20217;-66
2022/05/20 09:08:17;;;;;;;1.60;1.50;;;22.60;99.90;22.70;101579.00;;;;5155577;27;20195;-66
2022/05/20 09:10:48;;;;;;;0.98;0.90;;;22.60;99.90;21.80;101562.00;;;;5155495;27;20266;-66
2022/05/20 09:16:24;;;;;;;1.75;1.23;;;21.70;99.90;20.70;101486.00;;;;5154597;27;20213;-66
2022/05/20 09:19:04;;;;;;;5.60;2.90;;;21.30;99.90;19.70;101504.00;;;;5155073;27;20532;-66
2022/05/20 09:21:43;;;;;;;1.98;1.88;;;20.70;99.90;20.20;101503.00;;;;5155393;27;20186;-66
2022/05/20 09:24:22;;;;;;;3.28;2.97;;;20.60;99.90;20.30;101494.00;;;;5155443;27;20189;-66
2022/05/20 09:27:03;;;;;;;1.20;1.13;;;20.50;99.90;20.30;101476.00;;;;5136890;27;20182;-67
2022/05/20 09:29:46;;;;;;;2.38;2.28;;;20.70;99.90;19.60;101477.00;;;;5136984;27;20242;-66
2022/05/20 09:32:44;;;;;;;0.28;0.28;;;20.30;99.90;21.00;101453.00;;;;5136267;27;20206;-66
2022/05/20 09:35:19;;;;;;;2.40;2.22;;;20.80;99.90;20.70;101465.00;;;;5095565;27;20187;-66
2022/05/20 09:37:53;;;;;;;4.07;2.30;;;20.90;99.90;20.10;101431.00;;;;5154993;27;20194;-66
2022/05/20 09:40:41;;;;;;;6.28;3.03;;;20.70;99.90;20.50;101457.00;;;;5136529;27;20218;-66
2022/05/20 09:43:28;;;;;;;4.07;2.33;;;21.00;99.90;20.80;101449.00;;;;5119474;27;20183;-66
2022/05/20 09:45:57;;;;;;;0.55;0.55;;;21.10;99.90;21.00;101433.00;;;;5136499;27;20187;-66
2022/05/20 09:48:40;;;;;;;3.10;2.90;;;21.10;99.90;21.30;101401.00;;;;5135856;27;20190;-66
2022/05/20 09:51:25;;;;;;;13.15;4.63;;;21.30;99.90;20.70;101413.00;;;;5154879;27;20179;-66
2022/05/20 09:54:24;;;;;;;6.70;5.15;;;21.00;99.90;19.90;101386.00;;;;5136597;27;20247;-66
2022/05/20 09:57:14;;;;;;;4.75;4.13;;;20.70;99.90;20.10;101387.00;;;;5102017;27;20210;-66
2022/05/20 10:00:32;;;;;;;5.43;3.50;;;20.60;99.90;20.40;101395.00;;;;5135960;27;20186;-67
2022/05/20 10:03:10;;;;;;;7.15;4.32;;;20.60;99.90;19.60;101381.00;;;;5130332;27;20206;-66
2022/05/20 10:05:54;;;;;;;6.35;5.57;;;20.40;99.90;19.70;101383.00;;;;5136232;27;20193;-66
2022/05/20 10:08:37;;;;;;;2.38;2.22;;;20.30;99.90;20.10;101377.00;;;;5135837;27;20282;-66
2022/05/20 10:11:24;;;;;;;6.82;4.82;;;20.30;99.90;19.80;101326.00;;;;5136000;27;20194;-66
2022/05/20 10:14:20;;;;;;;5.75;5.15;;;20.30;99.90;20.30;101356.00;;;;5135952;27;20672;-67
2022/05/20 10:17:11;;;;;;;6.07;5.47;;;20.40;99.90;20.10;101311.00;;;;5135946;27;20231;-67
2022/05/20 10:20:17;;;;;;;4.65;4.18;;;20.50;99.90;20.20;101304.00;;;;5135728;27;20193;-67
2022/05/20 10:33:14;;;;;;;8.68;4.75;;;20.00;99.90;19.50;101317.00;;;;5192585;27;20490;-68
2022/05/20 10:36:15;;;;;;;7.05;5.28;;;20.00;99.90;19.80;101321.00;;;;5153105;27;20629;-68
2022/05/20 10:39:09;;;;;;;3.33;2.45;;;20.00;99.90;19.60;101273.00;;;;5153358;27;20192;-68
2022/05/20 10:42:08;;;;;;;4.00;2.97;;;20.10;99.90;19.60;101291.00;;;;5153039;27;20178;-68
2022/05/20 10:48:34;;;;;;;1.23;1.13;;;19.80;99.90;19.60;101279.00;;;;5161842;27;20651;-68
2022/05/20 10:51:19;;;;;;;2.75;1.92;;;19.80;99.90;19.80;101268.00;;;;5171239;27;20245;-68
2022/05/20 10:53:47;;;;;;;3.60;2.58;;;20.00;99.90;19.70;101260.00;;;;5171360;27;20182;-67
2022/05/20 10:56:23;;;;;;;0.68;0.68;;;20.10;99.90;19.30;101220.00;;;;5171335;27;20194;-68
2022/05/20 10:59:34;;;;;;;6.15;5.50;;;20.00;99.90;19.80;101259.00;;;;5171347;27;20188;-68
2022/05/20 11:02:33;;;;;;;3.38;2.95;;;20.00;99.90;19.40;101257.00;;;;5152369;27;20189;-68
2022/05/20 11:05:01;;;;;;;2.67;2.45;;;19.80;99.90;19.40;101259.00;;;;5152512;27;20197;-68
2022/05/20 11:08:03;;;;;;;3.13;2.83;;;19.50;99.90;19.00;101285.00;;;;5171786;27;20192;-67
2022/05/20 11:11:00;;;;;;;1.93;1.83;;;19.20;99.90;18.70;101269.00;;;;5161335;27;20203;-68
2022/05/20 11:14:17;;;;;;;1.53;1.53;;;18.90;99.90;18.50;101305.00;;;;5152726;27;20193;-69
2022/05/20 11:17:29;;;;;;;4.20;3.90;;;18.60;99.90;18.70;101302.00;;;;5122219;27;20303;-69
2022/05/20 11:20:51;;;;;;;1.65;1.60;;;18.50;99.90;18.60;101297.00;;;;5170809;27;20702;-68
2022/05/20 11:24:26;;;;;;;2.53;2.43;;;18.60;99.90;18.40;101259.00;;;;5171006;27;20240;-69
2022/05/20 11:27:09;;;;;;;6.17;5.67;;;18.50;99.90;18.50;101252.00;;;;5080690;27;20274;-69
2022/05/20 11:29:38;;;;;;;2.60;2.50;;;18.50;99.90;18.50;101251.00;;;;5151903;27;20186;-70
2022/05/20 11:32:53;;;;;;;5.63;5.03;;;18.50;99.90;18.70;101208.00;;;;5170595;27;20288;-70
2022/05/20 11:35:32;;;;;;;4.83;4.20;;;18.50;99.90;18.60;101183.00;;;;5113413;27;20217;-70
2022/05/20 11:38:33;;;;;;;3.73;3.47;;;18.60;99.90;18.70;101180.00;;;;5170785;27;20531;-70
2022/05/20 11:41:31;;;;;;;13.63;4.40;;;18.70;99.90;19.20;101200.00;;;;5170384;27;20223;-70
2022/05/20 11:44:18;;;;;;;3.77;3.53;;;18.90;99.90;19.10;101211.00;;;;5141654;27;20189;-70
2022/05/20 11:47:08;;;;;;;1.83;1.80;;;19.00;99.90;19.00;101219.00;;;;5138023;27;20204;-69
2022/05/20 11:49:58;;;;;;;2.77;2.57;;;19.00;99.90;18.80;101226.00;;;;5156994;27;20197;-69
2022/05/20 11:52:42;;;;;;;1.93;1.50;;;18.90;99.90;19.10;101223.00;;;;5156773;27;20662;-69